sensor_id;sensor_type;location;lat;lon;timestamp;P1;durP1;ratioP1;P2;durP2;ratioP2
6109;SDS011;3085;49.444;11.054;2024-03-23T00:53:50;6.07;;;4.40;;
6109;SDS011;3085;49.444;11.054;2024-03-23T00:56:16;10.53;;;5.00;;
6109;SDS011;3085;49.444;11.054;2024-03-23T00:58:43;7.90;;;5.00;;
6109;SDS011;3085;49.444;11.054;2024-03-23T01:01:08;8.40;;;5.40;;
6109;SDS011;3085;49.444;11.054;2024-03-23T01:03:35;8.47;;;4.40;;
6109;SDS011;3085;49.444;11.054;2024-03-23T01:06:01;12.90;;;6.00;;
6109;SDS011;3085;49.444;11.054;2024-03-23T01:08:27;10.93;;;5.13;;
6109;SDS011;3085;49.444;11.054;2024-03-23T01:10:55;7.97;;;5.20;;
6109;SDS011;3085;49.444;11.054;2024-03-23T01:13:22;8.73;;;5.50;;
6109;SDS011;3085;49.444;11.054;2024-03-23T01:15:48;13.07;;;5.60;;
6109;SDS011;3085;49.444;11.054;2024-03-23T01:18:16;11.40;;;5.63;;
6109;SDS011;3085;49.444;11.054;2024-03-23T01:20:42;12.33;;;6.20;;
6109;SDS011;3085;49.444;11.054;2024-03-23T01:23:10;6.60;;;4.73;;
6109;SDS011;3085;49.444;11.054;2024-03-23T01:25:35;13.03;;;6.30;;
6109;SDS011;3085;49.444;11.054;2024-03-23T01:28:04;23.47;;;6.10;;
6109;SDS011;3085;49.444;11.054;2024-03-23T01:30:31;12.83;;;5.80;;
6109;SDS011;3085;49.444;11.054;2024-03-23T01:32:58;10.40;;;5.53;;
6109;SDS011;3085;49.444;11.054;2024-03-23T01:35:23;11.93;;;6.67;;
6109;SDS011;3085;49.444;11.054;2024-03-23T01:37:50;10.20;;;5.47;;
6109;SDS011;3085;49.444;11.054;2024-03-23T01:40:16;8.43;;;5.03;;
6109;SDS011;3085;49.444;11.054;2024-03-23T01:42:43;8.93;;;5.60;;
6109;SDS011;3085;49.444;11.054;2024-03-23T01:45:21;8.63;;;5.10;;
6109;SDS011;3085;49.444;11.054;2024-03-23T01:47:48;11.87;;;5.30;;
6109;SDS011;3085;49.444;11.054;2024-03-23T01:50:14;11.70;;;5.67;;
6109;SDS011;3085;49.444;11.054;2024-03-23T01:52:41;9.50;;;4.97;;
6109;SDS011;3085;49.444;11.054;2024-03-23T01:55:07;14.03;;;6.20;;
6109;SDS011;3085;49.444;11.054;2024-03-23T01:57:34;10.00;;;6.20;;
6109;SDS011;3085;49.444;11.054;2024-03-23T02:00:00;12.23;;;6.80;;
6109;SDS011;3085;49.444;11.054;2024-03-23T02:02:28;13.40;;;6.47;;
6109;SDS011;3085;49.444;11.054;2024-03-23T02:04:54;9.87;;;5.17;;
6109;SDS011;3085;49.444;11.054;2024-03-23T02:07:21;12.40;;;5.63;;
6109;SDS011;3085;49.444;11.054;2024-03-23T02:09:47;9.10;;;5.37;;
6109;SDS011;3085;49.444;11.054;2024-03-23T02:12:13;9.23;;;5.20;;
6109;SDS011;3085;49.444;11.054;2024-03-23T02:14:40;14.30;;;5.60;;
6109;SDS011;3085;49.444;11.054;2024-03-23T02:17:06;10.80;;;5.20;;
6109;SDS011;3085;49.444;11.054;2024-03-23T02:19:33;8.90;;;5.30;;
6109;SDS011;3085;49.444;11.054;2024-03-23T02:22:00;9.80;;;5.00;;
6109;SDS011;3085;49.444;11.054;2024-03-23T02:24:29;12.13;;;5.67;;
6109;SDS011;3085;49.444;11.054;2024-03-23T02:26:55;10.00;;;5.03;;
6109;SDS011;3085;49.444;11.054;2024-03-23T02:29:21;8.67;;;5.00;;
6109;SDS011;3085;49.444;11.054;2024-03-23T02:31:48;8.57;;;5.00;;
6109;SDS011;3085;49.444;11.054;2024-03-23T02:34:13;17.37;;;5.50;;
6109;SDS011;3085;49.444;11.054;2024-03-23T02:36:40;10.73;;;4.87;;
6109;SDS011;3085;49.444;11.054;2024-03-23T02:39:06;15.97;;;5.50;;
6109;SDS011;3085;49.444;11.054;2024-03-23T02:41:34;13.70;;;5.10;;
6109;SDS011;3085;49.444;11.054;2024-03-23T02:43:59;10.23;;;5.20;;
6109;SDS011;3085;49.444;11.054;2024-03-23T02:46:26;9.80;;;5.20;;
6109;SDS011;3085;49.444;11.054;2024-03-23T02:48:52;8.47;;;4.47;;
6109;SDS011;3085;49.444;11.054;2024-03-23T02:51:18;9.97;;;4.70;;
6109;SDS011;3085;49.444;11.054;2024-03-23T02:53:44;6.87;;;3.77;;
6109;SDS011;3085;49.444;11.054;2024-03-23T02:56:11;7.13;;;4.60;;
6109;SDS011;3085;49.444;11.054;2024-03-23T02:58:43;9.63;;;4.87;;
6109;SDS011;3085;49.444;11.054;2024-03-23T03:01:09;9.13;;;4.83;;
6109;SDS011;3085;49.444;11.054;2024-03-23T03:03:35;15.93;;;4.83;;
6109;SDS011;3085;49.444;11.054;2024-03-23T03:06:02;9.63;;;4.80;;
6109;SDS011;3085;49.444;11.054;2024-03-23T03:08:28;7.37;;;4.63;;
6109;SDS011;3085;49.444;11.054;2024-03-23T03:10:55;9.80;;;4.70;;
6109;SDS011;3085;49.444;11.054;2024-03-23T03:13:21;11.43;;;5.80;;
6109;SDS011;3085;49.444;11.054;2024-03-23T03:15:49;13.33;;;6.20;;
6109;SDS011;3085;49.444;11.054;2024-03-23T03:18:15;11.07;;;6.40;;
6109;SDS011;3085;49.444;11.054;2024-03-23T03:20:41;9.40;;;5.10;;
6109;SDS011;3085;49.444;11.054;2024-03-23T03:23:07;11.50;;;4.70;;
6109;SDS011;3085;49.444;11.054;2024-03-23T03:25:34;5.63;;;3.73;;
6109;SDS011;3085;49.444;11.054;2024-03-23T03:28:00;8.00;;;4.63;;
6109;SDS011;3085;49.444;11.054;2024-03-23T03:30:27;12.50;;;4.80;;
6109;SDS011;3085;49.444;11.054;2024-03-23T03:32:54;7.50;;;4.60;;
6109;SDS011;3085;49.444;11.054;2024-03-23T03:35:20;13.30;;;6.63;;
6109;SDS011;3085;49.444;11.054;2024-03-23T03:37:47;10.20;;;5.00;;
6109;SDS011;3085;49.444;11.054;2024-03-23T03:40:13;12.70;;;6.60;;
6109;SDS011;3085;49.444;11.054;2024-03-23T03:42:40;12.90;;;6.23;;
6109;SDS011;3085;49.444;11.054;2024-03-23T03:45:06;12.70;;;6.53;;
6109;SDS011;3085;49.444;11.054;2024-03-23T03:47:32;11.03;;;5.07;;
6109;SDS011;3085;49.444;11.054;2024-03-23T03:50:00;10.10;;;5.83;;
6109;SDS011;3085;49.444;11.054;2024-03-23T03:52:26;15.10;;;5.50;;
6109;SDS011;3085;49.444;11.054;2024-03-23T03:54:55;16.03;;;6.83;;
6109;SDS011;3085;49.444;11.054;2024-03-23T03:57:26;11.63;;;5.70;;
6109;SDS011;3085;49.444;11.054;2024-03-23T03:59:52;9.47;;;5.03;;
6109;SDS011;3085;49.444;11.054;2024-03-23T04:02:18;7.10;;;5.10;;
6109;SDS011;3085;49.444;11.054;2024-03-23T04:04:45;7.83;;;4.57;;
6109;SDS011;3085;49.444;11.054;2024-03-23T04:07:12;9.37;;;5.43;;
6109;SDS011;3085;49.444;11.054;2024-03-23T04:09:38;10.27;;;5.47;;
6109;SDS011;3085;49.444;11.054;2024-03-23T04:12:04;14.90;;;5.97;;
6109;SDS011;3085;49.444;11.054;2024-03-23T04:14:32;11.77;;;5.70;;
6109;SDS011;3085;49.444;11.054;2024-03-23T04:16:57;10.10;;;6.00;;
6109;SDS011;3085;49.444;11.054;2024-03-23T04:19:24;14.50;;;5.27;;
6109;SDS011;3085;49.444;11.054;2024-03-23T04:21:50;14.90;;;6.50;;
6109;SDS011;3085;49.444;11.054;2024-03-23T04:24:18;11.63;;;5.57;;
6109;SDS011;3085;49.444;11.054;2024-03-23T04:26:46;8.23;;;5.10;;
6109;SDS011;3085;49.444;11.054;2024-03-23T04:29:12;13.93;;;6.57;;
6109;SDS011;3085;49.444;11.054;2024-03-23T04:31:38;13.90;;;6.47;;
6109;SDS011;3085;49.444;11.054;2024-03-23T04:34:05;18.53;;;7.47;;
6109;SDS011;3085;49.444;11.054;2024-03-23T04:36:30;18.73;;;5.33;;
6109;SDS011;3085;49.444;11.054;2024-03-23T04:38:58;18.97;;;5.13;;
6109;SDS011;3085;49.444;11.054;2024-03-23T04:41:27;12.07;;;5.37;;
6109;SDS011;3085;49.444;11.054;2024-03-23T04:43:53;10.10;;;5.00;;
6109;SDS011;3085;49.444;11.054;2024-03-23T04:46:20;7.93;;;4.67;;
6109;SDS011;3085;49.444;11.054;2024-03-23T04:48:47;16.47;;;5.80;;
6109;SDS011;3085;49.444;11.054;2024-03-23T04:51:20;11.83;;;6.10;;
6109;SDS011;3085;49.444;11.054;2024-03-23T04:53:47;8.87;;;4.80;;
6109;SDS011;3085;49.444;11.054;2024-03-23T04:56:14;26.93;;;5.33;;
6109;SDS011;3085;49.444;11.054;2024-03-23T04:58:43;7.73;;;4.90;;
6109;SDS011;3085;49.444;11.054;2024-03-23T05:01:09;12.20;;;5.83;;
6109;SDS011;3085;49.444;11.054;2024-03-23T05:03:36;16.30;;;5.17;;
6109;SDS011;3085;49.444;11.054;2024-03-23T05:06:03;6.90;;;5.00;;
6109;SDS011;3085;49.444;11.054;2024-03-23T05:08:30;6.97;;;4.77;;
6109;SDS011;3085;49.444;11.054;2024-03-23T05:10:56;10.13;;;5.40;;
6109;SDS011;3085;49.444;11.054;2024-03-23T05:13:23;7.80;;;4.60;;
6109;SDS011;3085;49.444;11.054;2024-03-23T05:15:52;11.97;;;4.80;;
6109;SDS011;3085;49.444;11.054;2024-03-23T05:18:19;10.93;;;4.83;;
6109;SDS011;3085;49.444;11.054;2024-03-23T05:20:45;9.67;;;4.83;;
6109;SDS011;3085;49.444;11.054;2024-03-23T05:23:11;9.80;;;5.30;;
6109;SDS011;3085;49.444;11.054;2024-03-23T05:25:37;13.93;;;4.57;;
6109;SDS011;3085;49.444;11.054;2024-03-23T05:28:04;10.17;;;5.20;;
6109;SDS011;3085;49.444;11.054;2024-03-23T05:30:30;9.77;;;5.40;;
6109;SDS011;3085;49.444;11.054;2024-03-23T05:32:58;23.57;;;8.93;;
6109;SDS011;3085;49.444;11.054;2024-03-23T05:35:24;21.13;;;9.90;;
6109;SDS011;3085;49.444;11.054;2024-03-23T05:37:51;29.53;;;8.67;;
6109;SDS011;3085;49.444;11.054;2024-03-23T05:40:17;23.03;;;9.63;;
6109;SDS011;3085;49.444;11.054;2024-03-23T05:42:43;26.70;;;8.90;;
6109;SDS011;3085;49.444;11.054;2024-03-23T05:45:10;21.53;;;8.10;;
6109;SDS011;3085;49.444;11.054;2024-03-23T05:47:36;17.63;;;7.13;;
6109;SDS011;3085;49.444;11.054;2024-03-23T05:50:04;24.03;;;7.33;;
6109;SDS011;3085;49.444;11.054;2024-03-23T05:52:30;20.60;;;8.03;;
6109;SDS011;3085;49.444;11.054;2024-03-23T05:54:57;10.40;;;5.37;;
6109;SDS011;3085;49.444;11.054;2024-03-23T05:57:23;12.00;;;4.97;;
6109;SDS011;3085;49.444;11.054;2024-03-23T05:59:50;11.83;;;4.87;;
6109;SDS011;3085;49.444;11.054;2024-03-23T06:02:16;11.63;;;3.90;;
6109;SDS011;3085;49.444;11.054;2024-03-23T06:04:44;9.37;;;3.90;;
6109;SDS011;3085;49.444;11.054;2024-03-23T06:07:12;6.50;;;3.50;;
6109;SDS011;3085;49.444;11.054;2024-03-23T06:09:39;5.63;;;2.83;;
6109;SDS011;3085;49.444;11.054;2024-03-23T06:12:04;3.93;;;2.80;;
6109;SDS011;3085;49.444;11.054;2024-03-23T06:14:31;6.50;;;3.37;;
6109;SDS011;3085;49.444;11.054;2024-03-23T06:16:58;4.87;;;3.20;;
6109;SDS011;3085;49.444;11.054;2024-03-23T06:19:24;10.07;;;4.03;;
6109;SDS011;3085;49.444;11.054;2024-03-23T06:21:52;8.63;;;4.47;;
6109;SDS011;3085;49.444;11.054;2024-03-23T06:24:20;8.73;;;4.37;;
6109;SDS011;3085;49.444;11.054;2024-03-23T06:26:46;10.93;;;4.67;;
6109;SDS011;3085;49.444;11.054;2024-03-23T06:29:13;9.23;;;5.10;;
6109;SDS011;3085;49.444;11.054;2024-03-23T06:31:39;8.63;;;4.90;;
6109;SDS011;3085;49.444;11.054;2024-03-23T06:34:05;10.70;;;5.80;;
6109;SDS011;3085;49.444;11.054;2024-03-23T06:36:31;13.33;;;5.37;;
6109;SDS011;3085;49.444;11.054;2024-03-23T06:38:58;10.87;;;5.00;;
6109;SDS011;3085;49.444;11.054;2024-03-23T06:41:25;11.07;;;5.77;;
6109;SDS011;3085;49.444;11.054;2024-03-23T06:43:52;11.67;;;5.90;;
6109;SDS011;3085;49.444;11.054;2024-03-23T06:46:18;12.50;;;5.90;;
6109;SDS011;3085;49.444;11.054;2024-03-23T06:48:44;14.93;;;7.27;;
6109;SDS011;3085;49.444;11.054;2024-03-23T06:51:10;26.53;;;6.63;;
6109;SDS011;3085;49.444;11.054;2024-03-23T06:53:37;10.33;;;6.03;;
6109;SDS011;3085;49.444;11.054;2024-03-23T06:56:02;10.03;;;6.33;;
6109;SDS011;3085;49.444;11.054;2024-03-23T06:58:31;11.93;;;6.20;;
6109;SDS011;3085;49.444;11.054;2024-03-23T07:00:58;11.73;;;6.17;;
6109;SDS011;3085;49.444;11.054;2024-03-23T07:03:24;13.60;;;6.30;;
6109;SDS011;3085;49.444;11.054;2024-03-23T07:05:51;10.23;;;6.37;;
6109;SDS011;3085;49.444;11.054;2024-03-23T07:08:17;9.00;;;5.20;;
6109;SDS011;3085;49.444;11.054;2024-03-23T07:10:47;11.60;;;5.60;;
6109;SDS011;3085;49.444;11.054;2024-03-23T07:13:14;9.63;;;5.67;;
6109;SDS011;3085;49.444;11.054;2024-03-23T07:15:41;8.00;;;5.03;;
6109;SDS011;3085;49.444;11.054;2024-03-23T07:18:07;10.20;;;4.50;;
6109;SDS011;3085;49.444;11.054;2024-03-23T07:20:33;11.33;;;5.50;;
6109;SDS011;3085;49.444;11.054;2024-03-23T07:23:00;10.90;;;5.40;;
6109;SDS011;3085;49.444;11.054;2024-03-23T07:25:26;9.27;;;4.57;;
6109;SDS011;3085;49.444;11.054;2024-03-23T07:27:54;12.00;;;5.27;;
6109;SDS011;3085;49.444;11.054;2024-03-23T07:30:20;14.60;;;5.10;;
6109;SDS011;3085;49.444;11.054;2024-03-23T07:32:48;14.30;;;5.23;;
6109;SDS011;3085;49.444;11.054;2024-03-23T07:35:13;9.07;;;4.80;;
6109;SDS011;3085;49.444;11.054;2024-03-23T07:37:40;7.67;;;4.67;;
6109;SDS011;3085;49.444;11.054;2024-03-23T07:40:07;12.43;;;4.30;;
6109;SDS011;3085;49.444;11.054;2024-03-23T07:42:34;10.70;;;4.47;;
6109;SDS011;3085;49.444;11.054;2024-03-23T07:45:00;9.07;;;4.87;;
6109;SDS011;3085;49.444;11.054;2024-03-23T07:47:27;9.07;;;4.57;;
6109;SDS011;3085;49.444;11.054;2024-03-23T07:49:54;8.37;;;4.20;;
6109;SDS011;3085;49.444;11.054;2024-03-23T07:52:21;8.67;;;4.30;;
6109;SDS011;3085;49.444;11.054;2024-03-23T07:54:46;8.23;;;4.57;;
6109;SDS011;3085;49.444;11.054;2024-03-23T07:57:13;7.70;;;3.70;;
6109;SDS011;3085;49.444;11.054;2024-03-23T07:59:39;8.30;;;4.00;;
6109;SDS011;3085;49.444;11.054;2024-03-23T08:02:05;9.10;;;4.57;;
6109;SDS011;3085;49.444;11.054;2024-03-23T08:04:31;8.83;;;4.13;;
6109;SDS011;3085;49.444;11.054;2024-03-23T08:06:59;7.73;;;4.20;;
6109;SDS011;3085;49.444;11.054;2024-03-23T08:09:25;13.33;;;5.20;;
6109;SDS011;3085;49.444;11.054;2024-03-23T08:11:51;6.23;;;4.33;;
6109;SDS011;3085;49.444;11.054;2024-03-23T08:14:17;9.33;;;4.60;;
6109;SDS011;3085;49.444;11.054;2024-03-23T08:16:44;7.70;;;4.07;;
6109;SDS011;3085;49.444;11.054;2024-03-23T08:19:15;8.20;;;4.07;;
6109;SDS011;3085;49.444;11.054;2024-03-23T08:21:41;8.47;;;3.80;;
6109;SDS011;3085;49.444;11.054;2024-03-23T08:24:08;5.17;;;3.07;;
6109;SDS011;3085;49.444;11.054;2024-03-23T08:26:35;5.80;;;2.77;;
6109;SDS011;3085;49.444;11.054;2024-03-23T08:29:02;5.70;;;2.80;;
6109;SDS011;3085;49.444;11.054;2024-03-23T08:31:29;3.57;;;2.50;;
6109;SDS011;3085;49.444;11.054;2024-03-23T08:33:55;2.80;;;2.30;;
6109;SDS011;3085;49.444;11.054;2024-03-23T08:36:21;2.97;;;2.03;;
6109;SDS011;3085;49.444;11.054;2024-03-23T08:38:47;4.10;;;2.17;;
6109;SDS011;3085;49.444;11.054;2024-03-23T08:41:16;3.67;;;2.47;;
6109;SDS011;3085;49.444;11.054;2024-03-23T08:43:42;2.47;;;1.97;;
6109;SDS011;3085;49.444;11.054;2024-03-23T08:46:09;2.70;;;2.10;;
6109;SDS011;3085;49.444;11.054;2024-03-23T08:48:36;17.83;;;2.60;;
6109;SDS011;3085;49.444;11.054;2024-03-23T08:51:04;2.63;;;2.00;;
6109;SDS011;3085;49.444;11.054;2024-03-23T08:53:30;3.17;;;2.37;;
6109;SDS011;3085;49.444;11.054;2024-03-23T08:55:57;3.00;;;2.40;;
6109;SDS011;3085;49.444;11.054;2024-03-23T08:58:25;3.50;;;2.37;;
6109;SDS011;3085;49.444;11.054;2024-03-23T09:00:52;2.90;;;2.17;;
6109;SDS011;3085;49.444;11.054;2024-03-23T09:03:21;2.80;;;1.87;;
6109;SDS011;3085;49.444;11.054;2024-03-23T09:05:49;3.60;;;2.53;;
6109;SDS011;3085;49.444;11.054;2024-03-23T09:08:14;3.00;;;2.10;;
6109;SDS011;3085;49.444;11.054;2024-03-23T09:10:41;2.23;;;1.70;;
6109;SDS011;3085;49.444;11.054;2024-03-23T09:13:07;2.00;;;1.80;;
6109;SDS011;3085;49.444;11.054;2024-03-23T09:15:36;2.50;;;1.70;;
6109;SDS011;3085;49.444;11.054;2024-03-23T09:18:03;1.93;;;1.50;;
6109;SDS011;3085;49.444;11.054;2024-03-23T09:20:32;2.20;;;1.90;;
6109;SDS011;3085;49.444;11.054;2024-03-23T09:22:58;2.20;;;2.00;;
6109;SDS011;3085;49.444;11.054;2024-03-23T09:25:24;2.00;;;1.67;;
6109;SDS011;3085;49.444;11.054;2024-03-23T09:27:50;2.80;;;1.90;;
6109;SDS011;3085;49.444;11.054;2024-03-23T09:30:17;1.83;;;1.50;;
6109;SDS011;3085;49.444;11.054;2024-03-23T09:32:46;2.63;;;2.07;;
6109;SDS011;3085;49.444;11.054;2024-03-23T09:35:12;1.60;;;1.50;;
6109;SDS011;3085;49.444;11.054;2024-03-23T09:37:38;1.87;;;1.60;;
6109;SDS011;3085;49.444;11.054;2024-03-23T09:40:05;1.60;;;1.30;;
6109;SDS011;3085;49.444;11.054;2024-03-23T09:42:34;1.60;;;1.40;;
6109;SDS011;3085;49.444;11.054;2024-03-23T09:45:01;1.50;;;1.40;;
6109;SDS011;3085;49.444;11.054;2024-03-23T09:47:27;3.50;;;1.70;;
6109;SDS011;3085;49.444;11.054;2024-03-23T09:49:55;1.67;;;1.57;;
6109;SDS011;3085;49.444;11.054;2024-03-23T09:52:21;2.23;;;1.70;;
6109;SDS011;3085;49.444;11.054;2024-03-23T09:54:48;1.70;;;1.60;;
6109;SDS011;3085;49.444;11.054;2024-03-23T09:57:13;1.50;;;1.40;;
6109;SDS011;3085;49.444;11.054;2024-03-23T09:59:40;5.93;;;1.50;;
6109;SDS011;3085;49.444;11.054;2024-03-23T10:02:06;1.60;;;1.50;;
6109;SDS011;3085;49.444;11.054;2024-03-23T10:04:36;1.50;;;1.40;;
6109;SDS011;3085;49.444;11.054;2024-03-23T10:07:10;1.50;;;1.40;;
6109;SDS011;3085;49.444;11.054;2024-03-23T10:09:38;1.40;;;1.30;;
6109;SDS011;3085;49.444;11.054;2024-03-23T10:12:07;1.60;;;1.30;;
6109;SDS011;3085;49.444;11.054;2024-03-23T10:14:35;2.17;;;1.53;;
6109;SDS011;3085;49.444;11.054;2024-03-23T10:17:11;1.40;;;1.30;;
6109;SDS011;3085;49.444;11.054;2024-03-23T10:19:40;1.40;;;1.30;;
6109;SDS011;3085;49.444;11.054;2024-03-23T10:22:07;1.47;;;1.37;;
6109;SDS011;3085;49.444;11.054;2024-03-23T10:24:36;1.70;;;1.60;;
6109;SDS011;3085;49.444;11.054;2024-03-23T10:27:01;7.23;;;1.50;;
6109;SDS011;3085;49.444;11.054;2024-03-23T10:29:28;1.83;;;1.43;;
6109;SDS011;3085;49.444;11.054;2024-03-23T10:31:55;5.50;;;1.50;;
6109;SDS011;3085;49.444;11.054;2024-03-23T10:34:34;5.30;;;1.77;;
6109;SDS011;3085;49.444;11.054;2024-03-23T10:37:01;5.57;;;3.23;;
6109;SDS011;3085;49.444;11.054;2024-03-23T10:39:30;2.13;;;1.83;;
6109;SDS011;3085;49.444;11.054;2024-03-23T10:41:59;2.40;;;1.70;;
6109;SDS011;3085;49.444;11.054;2024-03-23T10:44:29;2.23;;;1.97;;
6109;SDS011;3085;49.444;11.054;2024-03-23T10:46:57;1.80;;;1.70;;
6109;SDS011;3085;49.444;11.054;2024-03-23T10:49:26;3.27;;;2.03;;
6109;SDS011;3085;49.444;11.054;2024-03-23T10:51:54;2.27;;;1.80;;
6109;SDS011;3085;49.444;11.054;2024-03-23T10:54:21;1.90;;;1.70;;
6109;SDS011;3085;49.444;11.054;2024-03-23T10:56:50;7.10;;;2.50;;
6109;SDS011;3085;49.444;11.054;2024-03-23T10:59:21;12.00;;;2.00;;
6109;SDS011;3085;49.444;11.054;2024-03-23T11:01:54;4.17;;;2.17;;
6109;SDS011;3085;49.444;11.054;2024-03-23T11:04:30;2.07;;;1.77;;
6109;SDS011;3085;49.444;11.054;2024-03-23T11:06:59;2.67;;;2.13;;
6109;SDS011;3085;49.444;11.054;2024-03-23T11:09:37;4.50;;;2.07;;
6109;SDS011;3085;49.444;11.054;2024-03-23T11:12:14;2.37;;;2.10;;
6109;SDS011;3085;49.444;11.054;2024-03-23T11:14:52;3.43;;;2.10;;
6109;SDS011;3085;49.444;11.054;2024-03-23T11:17:20;3.73;;;2.13;;
6109;SDS011;3085;49.444;11.054;2024-03-23T11:19:52;5.17;;;2.40;;
6109;SDS011;3085;49.444;11.054;2024-03-23T11:25:14;3.50;;;2.10;;
6109;SDS011;3085;49.444;11.054;2024-03-23T11:27:42;3.07;;;2.23;;
6109;SDS011;3085;49.444;11.054;2024-03-23T11:30:11;3.23;;;2.40;;
6109;SDS011;3085;49.444;11.054;2024-03-23T11:32:38;3.40;;;2.10;;
6109;SDS011;3085;49.444;11.054;2024-03-23T11:35:05;2.30;;;2.10;;
6109;SDS011;3085;49.444;11.054;2024-03-23T11:37:32;20.20;;;2.90;;
6109;SDS011;3085;49.444;11.054;2024-03-23T11:39:58;5.53;;;2.70;;
6109;SDS011;3085;49.444;11.054;2024-03-23T11:42:25;3.20;;;2.17;;
6109;SDS011;3085;49.444;11.054;2024-03-23T11:44:50;5.20;;;2.43;;
6109;SDS011;3085;49.444;11.054;2024-03-23T11:47:18;2.60;;;2.10;;
6109;SDS011;3085;49.444;11.054;2024-03-23T11:49:44;6.63;;;2.43;;
6109;SDS011;3085;49.444;11.054;2024-03-23T11:52:11;4.50;;;2.10;;
6109;SDS011;3085;49.444;11.054;2024-03-23T11:54:36;2.33;;;2.10;;
6109;SDS011;3085;49.444;11.054;2024-03-23T11:57:04;4.20;;;2.27;;
6109;SDS011;3085;49.444;11.054;2024-03-23T11:59:33;4.77;;;2.30;;
6109;SDS011;3085;49.444;11.054;2024-03-23T12:02:05;4.53;;;2.20;;
6109;SDS011;3085;49.444;11.054;2024-03-23T12:04:33;4.30;;;2.33;;
6109;SDS011;3085;49.444;11.054;2024-03-23T12:07:10;3.90;;;2.50;;
6109;SDS011;3085;49.444;11.054;2024-03-23T12:09:40;8.30;;;2.93;;
6109;SDS011;3085;49.444;11.054;2024-03-23T12:12:08;5.27;;;2.10;;
6109;SDS011;3085;49.444;11.054;2024-03-23T12:14:35;3.17;;;2.13;;
6109;SDS011;3085;49.444;11.054;2024-03-23T12:17:09;7.60;;;2.53;;
6109;SDS011;3085;49.444;11.054;2024-03-23T12:19:37;4.90;;;2.37;;
6109;SDS011;3085;49.444;11.054;2024-03-23T12:22:04;2.57;;;2.10;;
6109;SDS011;3085;49.444;11.054;2024-03-23T12:24:30;4.90;;;2.07;;
6109;SDS011;3085;49.444;11.054;2024-03-23T12:26:59;4.50;;;2.30;;
6109;SDS011;3085;49.444;11.054;2024-03-23T12:29:27;4.03;;;1.87;;
6109;SDS011;3085;49.444;11.054;2024-03-23T12:31:54;2.13;;;1.70;;
6109;SDS011;3085;49.444;11.054;2024-03-23T12:34:21;8.07;;;2.90;;
6109;SDS011;3085;49.444;11.054;2024-03-23T12:36:48;11.77;;;2.30;;
6109;SDS011;3085;49.444;11.054;2024-03-23T12:39:14;4.60;;;2.20;;
6109;SDS011;3085;49.444;11.054;2024-03-23T12:41:41;4.40;;;2.90;;
6109;SDS011;3085;49.444;11.054;2024-03-23T12:44:06;5.50;;;2.20;;
6109;SDS011;3085;49.444;11.054;2024-03-23T12:46:36;4.50;;;2.10;;
6109;SDS011;3085;49.444;11.054;2024-03-23T12:49:02;5.37;;;2.20;;
6109;SDS011;3085;49.444;11.054;2024-03-23T12:51:29;3.70;;;2.30;;
6109;SDS011;3085;49.444;11.054;2024-03-23T12:53:56;10.67;;;2.90;;
6109;SDS011;3085;49.444;11.054;2024-03-23T12:56:22;3.57;;;2.13;;
6109;SDS011;3085;49.444;11.054;2024-03-23T12:58:48;10.53;;;3.27;;
6109;SDS011;3085;49.444;11.054;2024-03-23T13:01:16;4.63;;;2.80;;
6109;SDS011;3085;49.444;11.054;2024-03-23T13:03:42;3.10;;;2.00;;
6109;SDS011;3085;49.444;11.054;2024-03-23T13:06:09;5.90;;;2.17;;
6109;SDS011;3085;49.444;11.054;2024-03-23T13:08:35;8.83;;;3.07;;
6109;SDS011;3085;49.444;11.054;2024-03-23T13:11:03;3.07;;;2.50;;
6109;SDS011;3085;49.444;11.054;2024-03-23T13:13:29;5.40;;;2.10;;
6109;SDS011;3085;49.444;11.054;2024-03-23T13:15:56;3.97;;;2.40;;
6109;SDS011;3085;49.444;11.054;2024-03-23T13:18:22;7.97;;;2.50;;
6109;SDS011;3085;49.444;11.054;2024-03-23T13:20:49;8.33;;;2.30;;
6109;SDS011;3085;49.444;11.054;2024-03-23T13:23:14;5.70;;;2.47;;
6109;SDS011;3085;49.444;11.054;2024-03-23T13:25:42;6.83;;;2.30;;
6109;SDS011;3085;49.444;11.054;2024-03-23T13:28:16;2.80;;;2.50;;
6109;SDS011;3085;49.444;11.054;2024-03-23T13:30:49;6.50;;;2.77;;
6109;SDS011;3085;49.444;11.054;2024-03-23T13:33:15;6.07;;;2.20;;
6109;SDS011;3085;49.444;11.054;2024-03-23T13:35:48;2.50;;;2.30;;
6109;SDS011;3085;49.444;11.054;2024-03-23T13:38:14;3.47;;;2.37;;
6109;SDS011;3085;49.444;11.054;2024-03-23T13:40:48;4.50;;;2.50;;
6109;SDS011;3085;49.444;11.054;2024-03-23T13:43:18;4.87;;;2.40;;
6109;SDS011;3085;49.444;11.054;2024-03-23T13:45:45;5.00;;;2.30;;
6109;SDS011;3085;49.444;11.054;2024-03-23T13:48:12;10.80;;;3.60;;
6109;SDS011;3085;49.444;11.054;2024-03-23T13:50:39;7.73;;;2.67;;
6109;SDS011;3085;49.444;11.054;2024-03-23T13:53:04;7.57;;;2.40;;
6109;SDS011;3085;49.444;11.054;2024-03-23T13:55:33;7.33;;;2.37;;
6109;SDS011;3085;49.444;11.054;2024-03-23T13:57:58;7.80;;;3.13;;
6109;SDS011;3085;49.444;11.054;2024-03-23T14:00:26;3.10;;;2.23;;
6109;SDS011;3085;49.444;11.054;2024-03-23T14:02:52;5.67;;;2.17;;
6109;SDS011;3085;49.444;11.054;2024-03-23T14:05:19;4.33;;;2.30;;
6109;SDS011;3085;49.444;11.054;2024-03-23T14:07:44;5.33;;;2.33;;
6109;SDS011;3085;49.444;11.054;2024-03-23T14:10:11;5.07;;;2.53;;
6109;SDS011;3085;49.444;11.054;2024-03-23T14:12:38;10.40;;;2.00;;
6109;SDS011;3085;49.444;11.054;2024-03-23T14:15:05;5.10;;;2.20;;
6109;SDS011;3085;49.444;11.054;2024-03-23T14:17:32;6.57;;;2.10;;
6109;SDS011;3085;49.444;11.054;2024-03-23T14:19:59;6.23;;;2.37;;
6109;SDS011;3085;49.444;11.054;2024-03-23T14:22:26;3.10;;;2.00;;
6109;SDS011;3085;49.444;11.054;2024-03-23T14:24:53;4.77;;;1.97;;
6109;SDS011;3085;49.444;11.054;2024-03-23T14:27:18;4.53;;;2.30;;
6109;SDS011;3085;49.444;11.054;2024-03-23T14:29:46;7.17;;;2.30;;
6109;SDS011;3085;49.444;11.054;2024-03-23T14:32:12;4.53;;;2.30;;
6109;SDS011;3085;49.444;11.054;2024-03-23T14:34:41;4.60;;;2.43;;
6109;SDS011;3085;49.444;11.054;2024-03-23T14:37:07;5.67;;;1.90;;
6109;SDS011;3085;49.444;11.054;2024-03-23T14:39:33;5.53;;;2.20;;
6109;SDS011;3085;49.444;11.054;2024-03-23T14:41:59;8.73;;;2.67;;
6109;SDS011;3085;49.444;11.054;2024-03-23T14:44:26;3.30;;;2.00;;
6109;SDS011;3085;49.444;11.054;2024-03-23T14:46:52;7.20;;;2.00;;
6109;SDS011;3085;49.444;11.054;2024-03-23T14:49:20;7.27;;;2.60;;
6109;SDS011;3085;49.444;11.054;2024-03-23T14:51:47;6.20;;;1.90;;
6109;SDS011;3085;49.444;11.054;2024-03-23T14:54:14;8.73;;;2.10;;
6109;SDS011;3085;49.444;11.054;2024-03-23T14:56:40;3.63;;;2.17;;
6109;SDS011;3085;49.444;11.054;2024-03-23T14:59:07;2.97;;;2.00;;
6109;SDS011;3085;49.444;11.054;2024-03-23T15:01:33;6.27;;;2.57;;
6109;SDS011;3085;49.444;11.054;2024-03-23T15:04:00;5.50;;;2.60;;
6109;SDS011;3085;49.444;11.054;2024-03-23T15:06:26;4.80;;;2.20;;
6109;SDS011;3085;49.444;11.054;2024-03-23T15:08:54;3.43;;;2.00;;
6109;SDS011;3085;49.444;11.054;2024-03-23T15:11:19;3.63;;;2.10;;
6109;SDS011;3085;49.444;11.054;2024-03-23T15:13:46;9.80;;;2.80;;
6109;SDS011;3085;49.444;11.054;2024-03-23T15:16:16;6.13;;;2.60;;
6109;SDS011;3085;49.444;11.054;2024-03-23T15:18:45;3.03;;;2.20;;
6109;SDS011;3085;49.444;11.054;2024-03-23T15:21:11;7.70;;;2.60;;
6109;SDS011;3085;49.444;11.054;2024-03-23T15:23:39;17.10;;;2.70;;
6109;SDS011;3085;49.444;11.054;2024-03-23T15:26:08;4.20;;;2.43;;
6109;SDS011;3085;49.444;11.054;2024-03-23T15:28:35;4.67;;;2.60;;
6109;SDS011;3085;49.444;11.054;2024-03-23T15:31:06;3.87;;;2.60;;
6109;SDS011;3085;49.444;11.054;2024-03-23T15:33:34;4.43;;;2.57;;
6109;SDS011;3085;49.444;11.054;2024-03-23T15:36:00;3.13;;;2.30;;
6109;SDS011;3085;49.444;11.054;2024-03-23T15:38:27;4.27;;;2.50;;
6109;SDS011;3085;49.444;11.054;2024-03-23T15:40:54;7.50;;;2.70;;
6109;SDS011;3085;49.444;11.054;2024-03-23T15:43:22;3.57;;;2.40;;
6109;SDS011;3085;49.444;11.054;2024-03-23T15:45:54;4.13;;;2.33;;
6109;SDS011;3085;49.444;11.054;2024-03-23T15:48:21;4.93;;;2.33;;
6109;SDS011;3085;49.444;11.054;2024-03-23T15:50:50;6.67;;;2.47;;
6109;SDS011;3085;49.444;11.054;2024-03-23T15:53:18;2.30;;;2.00;;